sensor_id;sensor_type;location;lat;lon;timestamp;P1;durP1;ratioP1;P2;durP2;ratioP2
11827;SDS011;5971;49.646;8.568;2024-01-07T00:02:40;11.88;;;4.97;;
11827;SDS011;5971;49.646;8.568;2024-01-07T00:05:41;11.45;;;5.20;;
11827;SDS011;5971;49.646;8.568;2024-01-07T00:08:42;11.15;;;5.03;;
11827;SDS011;5971;49.646;8.568;2024-01-07T00:11:44;10.75;;;5.00;;
11827;SDS011;5971;49.646;8.568;2024-01-07T00:14:45;8.75;;;3.90;;
11827;SDS011;5971;49.646;8.568;2024-01-07T00:17:46;8.88;;;3.63;;
11827;SDS011;5971;49.646;8.568;2024-01-07T00:20:48;9.65;;;4.13;;
11827;SDS011;5971;49.646;8.568;2024-01-07T00:23:49;11.05;;;4.72;;
11827;SDS011;5971;49.646;8.568;2024-01-07T00:26:51;10.57;;;4.72;;
11827;SDS011;5971;49.646;8.568;2024-01-07T00:29:52;11.75;;;4.30;;
11827;SDS011;5971;49.646;8.568;2024-01-07T00:32:53;9.60;;;4.38;;
11827;SDS011;5971;49.646;8.568;2024-01-07T00:35:55;9.13;;;4.35;;
11827;SDS011;5971;49.646;8.568;2024-01-07T00:38:56;11.00;;;4.22;;
11827;SDS011;5971;49.646;8.568;2024-01-07T00:41:58;9.50;;;3.70;;
11827;SDS011;5971;49.646;8.568;2024-01-07T00:44:59;7.93;;;3.40;;
11827;SDS011;5971;49.646;8.568;2024-01-07T00:48:00;9.73;;;4.38;;
11827;SDS011;5971;49.646;8.568;2024-01-07T00:51:03;7.68;;;3.78;;
11827;SDS011;5971;49.646;8.568;2024-01-07T00:54:04;7.65;;;3.22;;
11827;SDS011;5971;49.646;8.568;2024-01-07T00:57:06;7.15;;;3.60;;
11827;SDS011;5971;49.646;8.568;2024-01-07T01:00:07;8.55;;;3.33;;
11827;SDS011;5971;49.646;8.568;2024-01-07T01:03:08;6.60;;;3.42;;
11827;SDS011;5971;49.646;8.568;2024-01-07T01:06:10;7.07;;;3.28;;
11827;SDS011;5971;49.646;8.568;2024-01-07T01:09:11;8.20;;;3.83;;
11827;SDS011;5971;49.646;8.568;2024-01-07T01:12:13;7.38;;;3.28;;
11827;SDS011;5971;49.646;8.568;2024-01-07T01:15:14;6.10;;;3.03;;
11827;SDS011;5971;49.646;8.568;2024-01-07T01:18:17;7.65;;;3.05;;
11827;SDS011;5971;49.646;8.568;2024-01-07T01:21:19;6.47;;;2.97;;
11827;SDS011;5971;49.646;8.568;2024-01-07T01:24:20;5.55;;;2.63;;
11827;SDS011;5971;49.646;8.568;2024-01-07T01:27:22;5.90;;;2.72;;
11827;SDS011;5971;49.646;8.568;2024-01-07T01:30:23;6.90;;;2.83;;
11827;SDS011;5971;49.646;8.568;2024-01-07T01:33:24;6.45;;;2.83;;
11827;SDS011;5971;49.646;8.568;2024-01-07T01:36:26;7.65;;;2.70;;
11827;SDS011;5971;49.646;8.568;2024-01-07T01:39:29;5.13;;;2.50;;
11827;SDS011;5971;49.646;8.568;2024-01-07T01:42:30;4.63;;;2.30;;
11827;SDS011;5971;49.646;8.568;2024-01-07T01:45:31;6.85;;;2.60;;
11827;SDS011;5971;49.646;8.568;2024-01-07T01:48:33;5.80;;;2.70;;
11827;SDS011;5971;49.646;8.568;2024-01-07T01:51:34;6.53;;;2.92;;
11827;SDS011;5971;49.646;8.568;2024-01-07T01:54:36;4.72;;;2.38;;
11827;SDS011;5971;49.646;8.568;2024-01-07T01:57:38;4.70;;;2.03;;
11827;SDS011;5971;49.646;8.568;2024-01-07T02:00:40;5.43;;;2.40;;
11827;SDS011;5971;49.646;8.568;2024-01-07T02:03:42;5.32;;;2.38;;
11827;SDS011;5971;49.646;8.568;2024-01-07T02:06:44;6.05;;;2.63;;
11827;SDS011;5971;49.646;8.568;2024-01-07T02:09:46;5.63;;;2.90;;
11827;SDS011;5971;49.646;8.568;2024-01-07T02:12:47;5.80;;;2.40;;
11827;SDS011;5971;49.646;8.568;2024-01-07T02:15:49;4.90;;;2.47;;
11827;SDS011;5971;49.646;8.568;2024-01-07T02:18:51;4.95;;;2.47;;
11827;SDS011;5971;49.646;8.568;2024-01-07T02:21:52;6.03;;;3.15;;
11827;SDS011;5971;49.646;8.568;2024-01-07T02:24:54;6.45;;;2.70;;
11827;SDS011;5971;49.646;8.568;2024-01-07T02:27:55;7.15;;;3.00;;
11827;SDS011;5971;49.646;8.568;2024-01-07T02:30:56;5.55;;;3.08;;
11827;SDS011;5971;49.646;8.568;2024-01-07T02:33:58;9.50;;;3.00;;
11827;SDS011;5971;49.646;8.568;2024-01-07T02:36:59;6.78;;;3.00;;
11827;SDS011;5971;49.646;8.568;2024-01-07T02:40:01;6.07;;;2.63;;
11827;SDS011;5971;49.646;8.568;2024-01-07T02:43:02;6.57;;;2.72;;
11827;SDS011;5971;49.646;8.568;2024-01-07T02:46:04;5.72;;;3.05;;
11827;SDS011;5971;49.646;8.568;2024-01-07T02:49:05;6.75;;;3.40;;
11827;SDS011;5971;49.646;8.568;2024-01-07T02:52:07;5.13;;;2.47;;
11827;SDS011;5971;49.646;8.568;2024-01-07T02:55:08;7.80;;;3.92;;
11827;SDS011;5971;49.646;8.568;2024-01-07T02:58:10;9.85;;;3.55;;
11827;SDS011;5971;49.646;8.568;2024-01-07T03:01:11;6.78;;;3.38;;
11827;SDS011;5971;49.646;8.568;2024-01-07T03:04:13;6.10;;;3.10;;
11827;SDS011;5971;49.646;8.568;2024-01-07T03:07:15;7.40;;;3.25;;
11827;SDS011;5971;49.646;8.568;2024-01-07T03:10:16;6.63;;;3.05;;
11827;SDS011;5971;49.646;8.568;2024-01-07T03:13:17;7.50;;;3.70;;
11827;SDS011;5971;49.646;8.568;2024-01-07T03:16:22;7.50;;;3.40;;
11827;SDS011;5971;49.646;8.568;2024-01-07T03:19:23;7.07;;;3.42;;
11827;SDS011;5971;49.646;8.568;2024-01-07T03:22:25;7.25;;;2.88;;
11827;SDS011;5971;49.646;8.568;2024-01-07T03:25:26;6.07;;;3.15;;
11827;SDS011;5971;49.646;8.568;2024-01-07T03:28:28;6.60;;;2.78;;
11827;SDS011;5971;49.646;8.568;2024-01-07T03:31:29;7.82;;;3.60;;
11827;SDS011;5971;49.646;8.568;2024-01-07T03:34:31;7.50;;;3.45;;
11827;SDS011;5971;49.646;8.568;2024-01-07T03:37:32;6.35;;;3.30;;
11827;SDS011;5971;49.646;8.568;2024-01-07T03:40:33;8.13;;;3.92;;
11827;SDS011;5971;49.646;8.568;2024-01-07T03:43:35;7.25;;;3.10;;
11827;SDS011;5971;49.646;8.568;2024-01-07T03:46:36;6.53;;;3.05;;
11827;SDS011;5971;49.646;8.568;2024-01-07T03:49:37;5.25;;;2.90;;
11827;SDS011;5971;49.646;8.568;2024-01-07T03:52:39;6.95;;;3.67;;
11827;SDS011;5971;49.646;8.568;2024-01-07T03:55:40;5.97;;;2.65;;
11827;SDS011;5971;49.646;8.568;2024-01-07T03:58:41;6.13;;;2.92;;
11827;SDS011;5971;49.646;8.568;2024-01-07T04:01:43;7.13;;;3.25;;
11827;SDS011;5971;49.646;8.568;2024-01-07T04:04:44;7.85;;;3.25;;
11827;SDS011;5971;49.646;8.568;2024-01-07T04:07:46;5.38;;;2.75;;
11827;SDS011;5971;49.646;8.568;2024-01-07T04:10:47;6.20;;;2.88;;
11827;SDS011;5971;49.646;8.568;2024-01-07T04:13:48;6.85;;;3.15;;
11827;SDS011;5971;49.646;8.568;2024-01-07T04:16:50;3.88;;;2.03;;
11827;SDS011;5971;49.646;8.568;2024-01-07T04:19:51;6.90;;;3.13;;
11827;SDS011;5971;49.646;8.568;2024-01-07T04:22:53;5.43;;;2.75;;
11827;SDS011;5971;49.646;8.568;2024-01-07T04:25:54;6.72;;;2.92;;
11827;SDS011;5971;49.646;8.568;2024-01-07T04:28:55;5.70;;;3.17;;
11827;SDS011;5971;49.646;8.568;2024-01-07T04:31:57;5.50;;;2.40;;
11827;SDS011;5971;49.646;8.568;2024-01-07T04:34:58;5.43;;;2.58;;
11827;SDS011;5971;49.646;8.568;2024-01-07T04:38:00;4.43;;;2.28;;
11827;SDS011;5971;49.646;8.568;2024-01-07T04:41:01;6.22;;;2.50;;
11827;SDS011;5971;49.646;8.568;2024-01-07T04:44:02;5.82;;;3.17;;
11827;SDS011;5971;49.646;8.568;2024-01-07T04:47:04;5.60;;;2.50;;
11827;SDS011;5971;49.646;8.568;2024-01-07T04:50:05;5.53;;;2.80;;
11827;SDS011;5971;49.646;8.568;2024-01-07T04:53:07;5.63;;;2.33;;
11827;SDS011;5971;49.646;8.568;2024-01-07T04:56:09;6.85;;;2.95;;
11827;SDS011;5971;49.646;8.568;2024-01-07T04:59:10;6.22;;;2.45;;
11827;SDS011;5971;49.646;8.568;2024-01-07T05:02:11;7.88;;;2.78;;
11827;SDS011;5971;49.646;8.568;2024-01-07T05:05:13;4.97;;;2.65;;
11827;SDS011;5971;49.646;8.568;2024-01-07T05:08:14;5.32;;;2.40;;
11827;SDS011;5971;49.646;8.568;2024-01-07T05:11:15;6.20;;;2.95;;
11827;SDS011;5971;49.646;8.568;2024-01-07T05:14:18;6.38;;;2.67;;
11827;SDS011;5971;49.646;8.568;2024-01-07T05:17:19;5.38;;;2.63;;
11827;SDS011;5971;49.646;8.568;2024-01-07T05:20:21;7.03;;;3.50;;
11827;SDS011;5971;49.646;8.568;2024-01-07T05:23:22;5.97;;;2.78;;
11827;SDS011;5971;49.646;8.568;2024-01-07T05:26:24;7.22;;;3.15;;
11827;SDS011;5971;49.646;8.568;2024-01-07T05:29:25;6.82;;;2.78;;
11827;SDS011;5971;49.646;8.568;2024-01-07T05:32:26;7.88;;;3.95;;
11827;SDS011;5971;49.646;8.568;2024-01-07T05:35:28;8.27;;;3.67;;
11827;SDS011;5971;49.646;8.568;2024-01-07T05:38:29;8.13;;;3.70;;
11827;SDS011;5971;49.646;8.568;2024-01-07T05:41:33;7.22;;;3.67;;
11827;SDS011;5971;49.646;8.568;2024-01-07T05:44:34;7.50;;;3.35;;
11827;SDS011;5971;49.646;8.568;2024-01-07T05:47:36;8.25;;;3.88;;
11827;SDS011;5971;49.646;8.568;2024-01-07T05:50:37;8.48;;;3.90;;
11827;SDS011;5971;49.646;8.568;2024-01-07T05:53:39;8.68;;;3.72;;
11827;SDS011;5971;49.646;8.568;2024-01-07T05:56:41;8.18;;;4.07;;
11827;SDS011;5971;49.646;8.568;2024-01-07T05:59:43;9.80;;;3.88;;
11827;SDS011;5971;49.646;8.568;2024-01-07T06:02:45;8.35;;;3.70;;
11827;SDS011;5971;49.646;8.568;2024-01-07T06:05:46;8.43;;;3.85;;
11827;SDS011;5971;49.646;8.568;2024-01-07T06:08:47;10.63;;;3.97;;
11827;SDS011;5971;49.646;8.568;2024-01-07T06:11:49;9.27;;;3.92;;
11827;SDS011;5971;49.646;8.568;2024-01-07T06:14:50;8.93;;;3.60;;
11827;SDS011;5971;49.646;8.568;2024-01-07T06:17:51;7.50;;;3.47;;
11827;SDS011;5971;49.646;8.568;2024-01-07T06:20:53;8.85;;;3.92;;
11827;SDS011;5971;49.646;8.568;2024-01-07T06:23:54;8.60;;;3.85;;
11827;SDS011;5971;49.646;8.568;2024-01-07T06:26:56;10.63;;;4.65;;
11827;SDS011;5971;49.646;8.568;2024-01-07T06:29:57;9.70;;;4.13;;
11827;SDS011;5971;49.646;8.568;2024-01-07T06:32:58;9.52;;;4.15;;
11827;SDS011;5971;49.646;8.568;2024-01-07T06:36:00;12.15;;;5.22;;
11827;SDS011;5971;49.646;8.568;2024-01-07T06:39:02;12.32;;;5.15;;
11827;SDS011;5971;49.646;8.568;2024-01-07T06:42:06;8.57;;;4.28;;
11827;SDS011;5971;49.646;8.568;2024-01-07T06:45:07;9.95;;;4.88;;
11827;SDS011;5971;49.646;8.568;2024-01-07T06:48:09;10.60;;;5.05;;
11827;SDS011;5971;49.646;8.568;2024-01-07T06:51:10;10.10;;;5.15;;
11827;SDS011;5971;49.646;8.568;2024-01-07T06:54:12;11.35;;;5.28;;
11827;SDS011;5971;49.646;8.568;2024-01-07T06:57:15;14.02;;;5.90;;
11827;SDS011;5971;49.646;8.568;2024-01-07T07:00:16;11.57;;;5.45;;
11827;SDS011;5971;49.646;8.568;2024-01-07T07:03:18;12.30;;;6.05;;
11827;SDS011;5971;49.646;8.568;2024-01-07T07:06:20;13.15;;;6.38;;
11827;SDS011;5971;49.646;8.568;2024-01-07T07:09:21;14.77;;;6.68;;
11827;SDS011;5971;49.646;8.568;2024-01-07T07:12:22;14.70;;;6.45;;
11827;SDS011;5971;49.646;8.568;2024-01-07T07:15:24;14.48;;;6.60;;
11827;SDS011;5971;49.646;8.568;2024-01-07T07:18:28;14.70;;;7.07;;
11827;SDS011;5971;49.646;8.568;2024-01-07T07:21:29;14.95;;;7.07;;
11827;SDS011;5971;49.646;8.568;2024-01-07T07:24:31;12.93;;;6.15;;
11827;SDS011;5971;49.646;8.568;2024-01-07T07:27:32;13.40;;;6.25;;
11827;SDS011;5971;49.646;8.568;2024-01-07T07:30:33;13.80;;;6.28;;
11827;SDS011;5971;49.646;8.568;2024-01-07T07:33:35;11.65;;;5.43;;
11827;SDS011;5971;49.646;8.568;2024-01-07T07:36:36;12.07;;;5.72;;
11827;SDS011;5971;49.646;8.568;2024-01-07T07:39:38;13.90;;;6.43;;
11827;SDS011;5971;49.646;8.568;2024-01-07T07:42:40;11.50;;;6.15;;
11827;SDS011;5971;49.646;8.568;2024-01-07T07:45:41;12.45;;;6.32;;
11827;SDS011;5971;49.646;8.568;2024-01-07T07:48:42;14.43;;;6.63;;
11827;SDS011;5971;49.646;8.568;2024-01-07T07:51:44;14.27;;;5.97;;
11827;SDS011;5971;49.646;8.568;2024-01-07T07:54:45;14.52;;;6.55;;
11827;SDS011;5971;49.646;8.568;2024-01-07T07:57:47;12.50;;;6.00;;
11827;SDS011;5971;49.646;8.568;2024-01-07T08:00:49;12.50;;;5.47;;
11827;SDS011;5971;49.646;8.568;2024-01-07T08:03:50;12.05;;;6.03;;
11827;SDS011;5971;49.646;8.568;2024-01-07T08:06:52;12.55;;;5.65;;
11827;SDS011;5971;49.646;8.568;2024-01-07T08:09:53;10.40;;;5.43;;
11827;SDS011;5971;49.646;8.568;2024-01-07T08:12:55;10.50;;;5.18;;
11827;SDS011;5971;49.646;8.568;2024-01-07T08:15:56;12.73;;;5.78;;
11827;SDS011;5971;49.646;8.568;2024-01-07T08:18:58;12.88;;;6.18;;
11827;SDS011;5971;49.646;8.568;2024-01-07T08:22:00;10.80;;;5.18;;
11827;SDS011;5971;49.646;8.568;2024-01-07T08:25:01;13.15;;;6.15;;
11827;SDS011;5971;49.646;8.568;2024-01-07T08:28:03;10.32;;;5.63;;
11827;SDS011;5971;49.646;8.568;2024-01-07T08:31:04;11.45;;;5.97;;
11827;SDS011;5971;49.646;8.568;2024-01-07T08:34:06;9.40;;;5.15;;
11827;SDS011;5971;49.646;8.568;2024-01-07T08:37:07;9.40;;;4.93;;
11827;SDS011;5971;49.646;8.568;2024-01-07T08:40:10;12.18;;;5.30;;
11827;SDS011;5971;49.646;8.568;2024-01-07T08:43:12;13.52;;;5.72;;
11827;SDS011;5971;49.646;8.568;2024-01-07T08:46:13;9.88;;;5.45;;
11827;SDS011;5971;49.646;8.568;2024-01-07T08:49:15;10.18;;;5.82;;
11827;SDS011;5971;49.646;8.568;2024-01-07T08:52:17;11.40;;;5.60;;
11827;SDS011;5971;49.646;8.568;2024-01-07T08:55:18;11.70;;;5.32;;
11827;SDS011;5971;49.646;8.568;2024-01-07T08:58:20;9.82;;;4.65;;
11827;SDS011;5971;49.646;8.568;2024-01-07T09:01:21;9.68;;;4.95;;
11827;SDS011;5971;49.646;8.568;2024-01-07T09:04:22;11.90;;;5.68;;
11827;SDS011;5971;49.646;8.568;2024-01-07T09:07:24;10.48;;;5.13;;
11827;SDS011;5971;49.646;8.568;2024-01-07T09:10:26;10.40;;;5.25;;
11827;SDS011;5971;49.646;8.568;2024-01-07T09:13:27;10.85;;;5.50;;
11827;SDS011;5971;49.646;8.568;2024-01-07T09:16:29;10.90;;;6.20;;
11827;SDS011;5971;49.646;8.568;2024-01-07T09:19:30;9.13;;;4.93;;
11827;SDS011;5971;49.646;8.568;2024-01-07T09:22:32;10.55;;;5.05;;
11827;SDS011;5971;49.646;8.568;2024-01-07T09:25:33;9.13;;;4.85;;
11827;SDS011;5971;49.646;8.568;2024-01-07T09:28:35;11.05;;;4.68;;
11827;SDS011;5971;49.646;8.568;2024-01-07T09:31:36;9.43;;;4.93;;
11827;SDS011;5971;49.646;8.568;2024-01-07T09:34:37;10.93;;;5.45;;
11827;SDS011;5971;49.646;8.568;2024-01-07T09:37:39;11.13;;;5.30;;
11827;SDS011;5971;49.646;8.568;2024-01-07T09:40:40;11.25;;;5.90;;
11827;SDS011;5971;49.646;8.568;2024-01-07T09:43:42;10.85;;;5.10;;
11827;SDS011;5971;49.646;8.568;2024-01-07T09:46:44;10.52;;;5.07;;
11827;SDS011;5971;49.646;8.568;2024-01-07T09:49:47;8.98;;;4.90;;
11827;SDS011;5971;49.646;8.568;2024-01-07T09:52:48;10.02;;;4.93;;
11827;SDS011;5971;49.646;8.568;2024-01-07T09:56:38;10.60;;;5.50;;
11827;SDS011;5971;49.646;8.568;2024-01-07T09:59:17;10.85;;;5.35;;
11827;SDS011;5971;49.646;8.568;2024-01-07T10:02:19;10.07;;;4.53;;
11827;SDS011;5971;49.646;8.568;2024-01-07T10:05:22;10.30;;;5.45;;
11827;SDS011;5971;49.646;8.568;2024-01-07T10:08:23;8.00;;;4.47;;
11827;SDS011;5971;49.646;8.568;2024-01-07T10:11:29;9.70;;;4.35;;
11827;SDS011;5971;49.646;8.568;2024-01-07T10:14:30;8.43;;;4.80;;
11827;SDS011;5971;49.646;8.568;2024-01-07T10:17:34;9.55;;;4.97;;
11827;SDS011;5971;49.646;8.568;2024-01-07T10:20:35;8.50;;;4.47;;
11827;SDS011;5971;49.646;8.568;2024-01-07T10:23:37;8.80;;;4.43;;
11827;SDS011;5971;49.646;8.568;2024-01-07T10:26:39;8.88;;;5.07;;
11827;SDS011;5971;49.646;8.568;2024-01-07T10:29:41;8.68;;;4.47;;
11827;SDS011;5971;49.646;8.568;2024-01-07T10:32:42;8.82;;;4.80;;
11827;SDS011;5971;49.646;8.568;2024-01-07T10:35:50;6.85;;;3.97;;
11827;SDS011;5971;49.646;8.568;2024-01-07T10:38:52;8.43;;;4.53;;
11827;SDS011;5971;49.646;8.568;2024-01-07T10:41:54;9.52;;;4.75;;
11827;SDS011;5971;49.646;8.568;2024-01-07T10:44:59;8.35;;;4.85;;
11827;SDS011;5971;49.646;8.568;2024-01-07T10:48:00;7.43;;;4.43;;
11827;SDS011;5971;49.646;8.568;2024-01-07T10:51:04;8.20;;;4.30;;
11827;SDS011;5971;49.646;8.568;2024-01-07T10:54:06;7.63;;;4.05;;
11827;SDS011;5971;49.646;8.568;2024-01-07T11:00:11;8.15;;;3.60;;
11827;SDS011;5971;49.646;8.568;2024-01-07T11:03:23;7.32;;;3.70;;
11827;SDS011;5971;49.646;8.568;2024-01-07T11:06:33;8.05;;;3.50;;
11827;SDS011;5971;49.646;8.568;2024-01-07T11:09:53;7.32;;;4.05;;
11827;SDS011;5971;49.646;8.568;2024-01-07T11:12:55;9.85;;;4.80;;
11827;SDS011;5971;49.646;8.568;2024-01-07T11:15:59;8.27;;;4.28;;
11827;SDS011;5971;49.646;8.568;2024-01-07T11:19:00;7.53;;;3.60;;
11827;SDS011;5971;49.646;8.568;2024-01-07T11:22:22;8.13;;;4.53;;
11827;SDS011;5971;49.646;8.568;2024-01-07T11:25:32;7.13;;;3.85;;
11827;SDS011;5971;49.646;8.568;2024-01-07T11:28:44;8.10;;;4.50;;
11827;SDS011;5971;49.646;8.568;2024-01-07T11:34:51;7.88;;;4.30;;
11827;SDS011;5971;49.646;8.568;2024-01-07T11:37:55;6.10;;;3.38;;
11827;SDS011;5971;49.646;8.568;2024-01-07T11:40:56;9.75;;;4.32;;
11827;SDS011;5971;49.646;8.568;2024-01-07T11:43:58;9.07;;;4.35;;
11827;SDS011;5971;49.646;8.568;2024-01-07T11:47:06;8.57;;;4.68;;
11827;SDS011;5971;49.646;8.568;2024-01-07T11:50:08;7.70;;;4.68;;
11827;SDS011;5971;49.646;8.568;2024-01-07T11:53:12;8.35;;;4.80;;
11827;SDS011;5971;49.646;8.568;2024-01-07T11:56:14;8.27;;;4.45;;
11827;SDS011;5971;49.646;8.568;2024-01-07T11:59:15;6.50;;;3.80;;
11827;SDS011;5971;49.646;8.568;2024-01-07T12:02:18;9.65;;;4.93;;
11827;SDS011;5971;49.646;8.568;2024-01-07T12:05:20;8.65;;;4.55;;
11827;SDS011;5971;49.646;8.568;2024-01-07T12:08:21;9.05;;;4.20;;
11827;SDS011;5971;49.646;8.568;2024-01-07T12:11:23;9.05;;;4.85;;
11827;SDS011;5971;49.646;8.568;2024-01-07T12:14:24;7.10;;;3.50;;
11827;SDS011;5971;49.646;8.568;2024-01-07T12:17:27;9.07;;;5.03;;
11827;SDS011;5971;49.646;8.568;2024-01-07T12:20:28;8.50;;;4.95;;
11827;SDS011;5971;49.646;8.568;2024-01-07T12:23:34;8.35;;;4.30;;
11827;SDS011;5971;49.646;8.568;2024-01-07T12:26:35;9.38;;;5.05;;
11827;SDS011;5971;49.646;8.568;2024-01-07T12:29:38;9.27;;;4.30;;
11827;SDS011;5971;49.646;8.568;2024-01-07T12:32:40;9.95;;;5.03;;
11827;SDS011;5971;49.646;8.568;2024-01-07T12:35:41;11.40;;;5.15;;
11827;SDS011;5971;49.646;8.568;2024-01-07T12:38:42;9.93;;;4.60;;
11827;SDS011;5971;49.646;8.568;2024-01-07T12:41:44;8.93;;;4.63;;
11827;SDS011;5971;49.646;8.568;2024-01-07T12:44:45;8.40;;;5.07;;
11827;SDS011;5971;49.646;8.568;2024-01-07T12:47:46;10.32;;;4.82;;
11827;SDS011;5971;49.646;8.568;2024-01-07T12:50:48;9.52;;;4.45;;
11827;SDS011;5971;49.646;8.568;2024-01-07T12:53:50;10.27;;;5.25;;
11827;SDS011;5971;49.646;8.568;2024-01-07T12:56:51;8.27;;;4.68;;
11827;SDS011;5971;49.646;8.568;2024-01-07T12:59:53;7.93;;;4.10;;
11827;SDS011;5971;49.646;8.568;2024-01-07T13:02:54;8.18;;;4.07;;
11827;SDS011;5971;49.646;8.568;2024-01-07T13:06:00;9.85;;;5.18;;
11827;SDS011;5971;49.646;8.568;2024-01-07T13:09:02;8.68;;;4.47;;
11827;SDS011;5971;49.646;8.568;2024-01-07T13:12:06;12.55;;;5.60;;
11827;SDS011;5971;49.646;8.568;2024-01-07T13:15:08;9.27;;;4.57;;
11827;SDS011;5971;49.646;8.568;2024-01-07T13:18:09;7.70;;;3.92;;
11827;SDS011;5971;49.646;8.568;2024-01-07T13:21:13;8.23;;;4.03;;
11827;SDS011;5971;49.646;8.568;2024-01-07T13:24:15;8.10;;;3.92;;
11827;SDS011;5971;49.646;8.568;2024-01-07T13:27:16;7.65;;;4.15;;
11827;SDS011;5971;49.646;8.568;2024-01-07T13:30:20;8.80;;;4.13;;
11827;SDS011;5971;49.646;8.568;2024-01-07T13:33:22;8.57;;;4.32;;
11827;SDS011;5971;49.646;8.568;2024-01-07T13:36:23;10.10;;;4.43;;
11827;SDS011;5971;49.646;8.568;2024-01-07T13:39:24;8.60;;;3.63;;
11827;SDS011;5971;49.646;8.568;2024-01-07T13:42:26;8.30;;;3.85;;
11827;SDS011;5971;49.646;8.568;2024-01-07T13:45:27;9.02;;;3.65;;
11827;SDS011;5971;49.646;8.568;2024-01-07T13:48:29;9.05;;;4.00;;
11827;SDS011;5971;49.646;8.568;2024-01-07T13:51:30;7.03;;;3.58;;
11827;SDS011;5971;49.646;8.568;2024-01-07T13:54:32;9.02;;;4.47;;
11827;SDS011;5971;49.646;8.568;2024-01-07T13:57:33;7.78;;;4.35;;
11827;SDS011;5971;49.646;8.568;2024-01-07T14:00:35;8.18;;;4.28;;
11827;SDS011;5971;49.646;8.568;2024-01-07T14:03:36;8.68;;;4.22;;
11827;SDS011;5971;49.646;8.568;2024-01-07T14:06:38;6.43;;;3.88;;
11827;SDS011;5971;49.646;8.568;2024-01-07T14:09:40;6.32;;;3.58;;
11827;SDS011;5971;49.646;8.568;2024-01-07T14:12:41;7.88;;;3.92;;
11827;SDS011;5971;49.646;8.568;2024-01-07T14:15:42;9.38;;;4.63;;
11827;SDS011;5971;49.646;8.568;2024-01-07T14:18:45;10.32;;;4.97;;
11827;SDS011;5971;49.646;8.568;2024-01-07T14:21:46;10.13;;;4.53;;
11827;SDS011;5971;49.646;8.568;2024-01-07T14:24:48;9.07;;;4.43;;
11827;SDS011;5971;49.646;8.568;2024-01-07T14:27:50;7.70;;;3.85;;
11827;SDS011;5971;49.646;8.568;2024-01-07T14:30:52;10.30;;;4.85;;
11827;SDS011;5971;49.646;8.568;2024-01-07T14:33:53;7.22;;;3.80;;
11827;SDS011;5971;49.646;8.568;2024-01-07T14:36:55;8.05;;;4.45;;
11827;SDS011;5971;49.646;8.568;2024-01-07T14:39:56;8.55;;;4.43;;
11827;SDS011;5971;49.646;8.568;2024-01-07T14:42:57;9.57;;;4.22;;
11827;SDS011;5971;49.646;8.568;2024-01-07T14:45:59;9.38;;;4.50;;
11827;SDS011;5971;49.646;8.568;2024-01-07T14:49:01;8.75;;;4.50;;
11827;SDS011;5971;49.646;8.568;2024-01-07T14:52:03;7.80;;;3.78;;
11827;SDS011;5971;49.646;8.568;2024-01-07T14:55:05;8.55;;;4.55;;
11827;SDS011;5971;49.646;8.568;2024-01-07T14:58:06;11.23;;;4.93;;
11827;SDS011;5971;49.646;8.568;2024-01-07T15:01:07;8.68;;;4.60;;
11827;SDS011;5971;49.646;8.568;2024-01-07T15:04:10;10.98;;;5.20;;
11827;SDS011;5971;49.646;8.568;2024-01-07T15:07:12;8.80;;;4.57;;
11827;SDS011;5971;49.646;8.568;2024-01-07T15:10:16;10.10;;;4.22;;
11827;SDS011;5971;49.646;8.568;2024-01-07T15:13:19;9.23;;;3.78;;
11827;SDS011;5971;49.646;8.568;2024-01-07T15:16:22;9.20;;;4.20;;
11827;SDS011;5971;49.646;8.568;2024-01-07T15:19:24;6.82;;;3.17;;
11827;SDS011;5971;49.646;8.568;2024-01-07T15:22:25;9.25;;;4.78;;
11827;SDS011;5971;49.646;8.568;2024-01-07T15:25:27;14.88;;;5.72;;
11827;SDS011;5971;49.646;8.568;2024-01-07T15:28:28;9.13;;;4.55;;
11827;SDS011;5971;49.646;8.568;2024-01-07T15:31:30;7.15;;;3.55;;
11827;SDS011;5971;49.646;8.568;2024-01-07T15:34:32;8.20;;;3.30;;
11827;SDS011;5971;49.646;8.568;2024-01-07T15:37:33;11.73;;;4.68;;
11827;SDS011;5971;49.646;8.568;2024-01-07T15:40:35;7.63;;;3.40;;
11827;SDS011;5971;49.646;8.568;2024-01-07T15:43:36;7.30;;;3.83;;
11827;SDS011;5971;49.646;8.568;2024-01-07T15:46:38;6.53;;;2.70;;
11827;SDS011;5971;49.646;8.568;2024-01-07T15:49:39;5.18;;;2.92;;
11827;SDS011;5971;49.646;8.568;2024-01-07T15:52:41;5.18;;;2.58;;
11827;SDS011;5971;49.646;8.568;2024-01-07T15:55:47;5.80;;;3.15;;
11827;SDS011;5971;49.646;8.568;2024-01-07T15:58:48;5.78;;;3.38;;
11827;SDS011;5971;49.646;8.568;2024-01-07T16:01:50;6.85;;;3.67;;
11827;SDS011;5971;49.646;8.568;2024-01-07T16:04:51;6.22;;;2.88;;
11827;SDS011;5971;49.646;8.568;2024-01-07T16:07:53;6.65;;;2.90;;
11827;SDS011;5971;49.646;8.568;2024-01-07T16:10:54;6.28;;;2.90;;
11827;SDS011;5971;49.646;8.568;2024-01-07T16:13:56;5.63;;;3.00;;
11827;SDS011;5971;49.646;8.568;2024-01-07T16:16:57;2.83;;;1.52;;
11827;SDS011;5971;49.646;8.568;2024-01-07T16:19:59;4.45;;;2.90;;
11827;SDS011;5971;49.646;8.568;2024-01-07T16:23:00;5.13;;;2.42;;
11827;SDS011;5971;49.646;8.568;2024-01-07T16:26:02;3.65;;;1.65;;
11827;SDS011;5971;49.646;8.568;2024-01-07T16:29:03;4.47;;;2.22;;
11827;SDS011;5971;49.646;8.568;2024-01-07T16:32:05;3.78;;;2.42;;
11827;SDS011;5971;49.646;8.568;2024-01-07T16:35:07;4.57;;;2.28;;
11827;SDS011;5971;49.646;8.568;2024-01-07T16:38:09;3.47;;;2.08;;
11827;SDS011;5971;49.646;8.568;2024-01-07T16:41:10;5.68;;;2.47;;
11827;SDS011;5971;49.646;8.568;2024-01-07T16:44:13;5.40;;;2.38;;
11827;SDS011;5971;49.646;8.568;2024-01-07T16:47:15;4.53;;;2.55;;
11827;SDS011;5971;49.646;8.568;2024-01-07T16:50:16;3.50;;;2.08;;
11827;SDS011;5971;49.646;8.568;2024-01-07T16:53:25;4.43;;;2.03;;
11827;SDS011;5971;49.646;8.568;2024-01-07T16:56:26;3.00;;;2.20;;
11827;SDS011;5971;49.646;8.568;2024-01-07T16:59:28;3.78;;;2.08;;
11827;SDS011;5971;49.646;8.568;2024-01-07T17:02:30;5.40;;;2.95;;
11827;SDS011;5971;49.646;8.568;2024-01-07T17:05:31;6.55;;;2.30;;
11827;SDS011;5971;49.646;8.568;2024-01-07T17:08:33;4.82;;;2.35;;
11827;SDS011;5971;49.646;8.568;2024-01-07T17:11:34;4.13;;;2.13;;
11827;SDS011;5971;49.646;8.568;2024-01-07T17:14:38;3.65;;;2.00;;
11827;SDS011;5971;49.646;8.568;2024-01-07T17:17:40;3.40;;;1.98;;
11827;SDS011;5971;49.646;8.568;2024-01-07T17:20:42;3.80;;;2.08;;
11827;SDS011;5971;49.646;8.568;2024-01-07T17:23:44;3.55;;;1.83;;
11827;SDS011;5971;49.646;8.568;2024-01-07T17:26:52;4.60;;;2.42;;
11827;SDS011;5971;49.646;8.568;2024-01-07T17:29:53;4.43;;;1.90;;
11827;SDS011;5971;49.646;8.568;2024-01-07T17:32:54;3.17;;;1.48;;
11827;SDS011;5971;49.646;8.568;2024-01-07T17:35:56;3.97;;;2.13;;
11827;SDS011;5971;49.646;8.568;2024-01-07T17:38:58;5.75;;;2.25;;
11827;SDS011;5971;49.646;8.568;2024-01-07T17:41:59;6.85;;;3.20;;
11827;SDS011;5971;49.646;8.568;2024-01-07T17:45:03;4.45;;;2.38;;
11827;SDS011;5971;49.646;8.568;2024-01-07T17:48:06;3.75;;;1.42;;
11827;SDS011;5971;49.646;8.568;2024-01-07T17:51:07;3.65;;;1.88;;
11827;SDS011;5971;49.646;8.568;2024-01-07T17:54:09;3.78;;;2.22;;
11827;SDS011;5971;49.646;8.568;2024-01-07T17:57:10;4.43;;;2.85;;
11827;SDS011;5971;49.646;8.568;2024-01-07T18:00:12;3.88;;;2.08;;
11827;SDS011;5971;49.646;8.568;2024-01-07T18:03:14;4.65;;;2.38;;
11827;SDS011;5971;49.646;8.568;2024-01-07T18:06:15;3.70;;;2.20;;
11827;SDS011;5971;49.646;8.568;2024-01-07T18:09:17;4.25;;;2.08;;
11827;SDS011;5971;49.646;8.568;2024-01-07T18:12:18;4.90;;;2.80;;
11827;SDS011;5971;49.646;8.568;2024-01-07T18:15:20;4.85;;;2.75;;
11827;SDS011;5971;49.646;8.568;2024-01-07T18:18:21;6.10;;;3.17;;
11827;SDS011;5971;49.646;8.568;2024-01-07T18:21:24;4.97;;;2.63;;
11827;SDS011;5971;49.646;8.568;2024-01-07T18:24:25;7.30;;;3.17;;
11827;SDS011;5971;49.646;8.568;2024-01-07T18:27:27;5.30;;;2.80;;
11827;SDS011;5971;49.646;8.568;2024-01-07T18:30:28;3.58;;;1.73;;
11827;SDS011;5971;49.646;8.568;2024-01-07T18:33:30;3.40;;;1.77;;
11827;SDS011;5971;49.646;8.568;2024-01-07T18:36:31;3.70;;;2.00;;